sensor_id;sensor_type;location;lat;lon;timestamp;pressure;altitude;pressure_sealevel;temperature;humidity
51313;BME280;37397;53.226;10.400;2023-05-23T00:02:13;100832.84;;;21.00;55.29
51313;BME280;37397;53.226;10.400;2023-05-23T00:04:41;100838.63;;;21.00;55.06
51313;BME280;37397;53.226;10.400;2023-05-23T00:07:08;100834.72;;;20.98;55.01
51313;BME280;37397;53.226;10.400;2023-05-23T00:09:35;100835.28;;;20.96;55.09
51313;BME280;37397;53.226;10.400;2023-05-23T00:12:01;100835.81;;;20.94;55.16
51313;BME280;37397;53.226;10.400;2023-05-23T00:14:28;100839.31;;;20.93;55.10
51313;BME280;37397;53.226;10.400;2023-05-23T00:16:59;100836.16;;;20.91;55.04
51313;BME280;37397;53.226;10.400;2023-05-23T00:19:26;100846.22;;;20.90;55.10
51313;BME280;37397;53.226;10.400;2023-05-23T00:21:53;100838.63;;;20.87;55.13
51313;BME280;37397;53.226;10.400;2023-05-23T00:24:23;100839.19;;;20.85;54.72
51313;BME280;37397;53.226;10.400;2023-05-23T00:26:50;100825.22;;;20.84;55.04
51313;BME280;37397;53.226;10.400;2023-05-23T00:29:16;100832.91;;;20.81;55.03
51313;BME280;37397;53.226;10.400;2023-05-23T00:31:44;100827.66;;;20.80;55.07
51313;BME280;37397;53.226;10.400;2023-05-23T00:34:13;100831.91;;;20.79;55.08
51313;BME280;37397;53.226;10.400;2023-05-23T00:36:40;100833.25;;;20.77;55.19
51313;BME280;37397;53.226;10.400;2023-05-23T00:39:09;100821.72;;;20.72;55.34
51313;BME280;37397;53.226;10.400;2023-05-23T00:41:46;100821.72;;;20.72;55.24
51313;BME280;37397;53.226;10.400;2023-05-23T00:44:16;100822.28;;;20.70;55.23
51313;BME280;37397;53.226;10.400;2023-05-23T00:46:47;100822.06;;;20.68;55.35
51313;BME280;37397;53.226;10.400;2023-05-23T00:49:15;100828.41;;;20.67;55.38
51313;BME280;37397;53.226;10.400;2023-05-23T00:51:45;100824.53;;;20.64;55.44
51313;BME280;37397;53.226;10.400;2023-05-23T00:54:12;100828.72;;;20.63;55.19
51313;BME280;37397;53.226;10.400;2023-05-23T00:56:40;100824.78;;;20.61;55.56
51313;BME280;37397;53.226;10.400;2023-05-23T00:59:06;100826.69;;;20.58;55.46
51313;BME280;37397;53.226;10.400;2023-05-23T01:01:33;100825.13;;;20.57;55.27
51313;BME280;37397;53.226;10.400;2023-05-23T01:04:02;100822.00;;;20.55;55.58
51313;BME280;37397;53.226;10.400;2023-05-23T01:06:30;100815.72;;;20.51;55.65
51313;BME280;37397;53.226;10.400;2023-05-23T01:08:59;100820.75;;;20.50;55.75
51313;BME280;37397;53.226;10.400;2023-05-23T01:11:42;100812.59;;;20.49;55.50
51313;BME280;37397;53.226;10.400;2023-05-23T01:14:18;100802.13;;;20.46;55.23
51313;BME280;37397;53.226;10.400;2023-05-23T01:16:52;100813.72;;;20.46;55.65
51313;BME280;37397;53.226;10.400;2023-05-23T01:22:41;100807.47;;;20.42;55.53
51313;BME280;37397;53.226;10.400;2023-05-23T01:25:41;100797.75;;;20.39;55.46
51313;BME280;37397;53.226;10.400;2023-05-23T01:28:15;100799.88;;;20.38;55.59
51313;BME280;37397;53.226;10.400;2023-05-23T01:30:44;100799.41;;;20.34;55.78
51313;BME280;37397;53.226;10.400;2023-05-23T01:33:13;100807.00;;;20.37;55.91
51313;BME280;37397;53.226;10.400;2023-05-23T01:35:42;100804.97;;;20.32;55.95
51313;BME280;37397;53.226;10.400;2023-05-23T01:38:09;100815.47;;;20.35;56.01
51313;BME280;37397;53.226;10.400;2023-05-23T01:40:38;100810.22;;;20.34;56.08
51313;BME280;37397;53.226;10.400;2023-05-23T01:43:04;100805.75;;;20.33;55.96
51313;BME280;37397;53.226;10.400;2023-05-23T01:45:32;100808.44;;;20.31;56.23
51313;BME280;37397;53.226;10.400;2023-05-23T01:47:59;100804.97;;;20.32;55.89
51313;BME280;37397;53.226;10.400;2023-05-23T01:50:28;100805.31;;;20.29;56.08
51313;BME280;37397;53.226;10.400;2023-05-23T01:52:55;100800.28;;;20.29;56.24
51313;BME280;37397;53.226;10.400;2023-05-23T01:55:24;100801.38;;;20.26;56.16
51313;BME280;37397;53.226;10.400;2023-05-23T01:57:55;100810.31;;;20.28;55.77
51313;BME280;37397;53.226;10.400;2023-05-23T02:00:22;100805.84;;;20.27;56.23
51313;BME280;37397;53.226;10.400;2023-05-23T02:02:50;100798.25;;;20.24;56.48
51313;BME280;37397;53.226;10.400;2023-05-23T02:05:16;100807.94;;;20.27;56.52
51313;BME280;37397;53.226;10.400;2023-05-23T02:07:44;100815.09;;;20.26;56.35
51313;BME280;37397;53.226;10.400;2023-05-23T02:10:10;100802.72;;;20.25;56.62
51313;BME280;37397;53.226;10.400;2023-05-23T02:12:37;100803.25;;;20.23;56.50
51313;BME280;37397;53.226;10.400;2023-05-23T02:15:04;100797.47;;;20.23;56.58
51313;BME280;37397;53.226;10.400;2023-05-23T02:17:31;100809.06;;;20.23;56.64
51313;BME280;37397;53.226;10.400;2023-05-23T02:19:58;100812.28;;;20.20;56.59
51313;BME280;37397;53.226;10.400;2023-05-23T02:22:25;100811.72;;;20.21;56.72
51313;BME280;37397;53.226;10.400;2023-05-23T02:24:51;100816.75;;;20.21;56.98
51313;BME280;37397;53.226;10.400;2023-05-23T02:27:18;100807.84;;;20.19;56.98
51313;BME280;37397;53.226;10.400;2023-05-23T02:29:45;100815.19;;;20.20;57.18
51313;BME280;37397;53.226;10.400;2023-05-23T02:32:12;100820.75;;;20.18;56.89
51313;BME280;37397;53.226;10.400;2023-05-23T02:34:39;100825.75;;;20.17;57.07
51313;BME280;37397;53.226;10.400;2023-05-23T02:37:06;100821.28;;;20.16;57.44
51313;BME280;37397;53.226;10.400;2023-05-23T02:39:35;100821.63;;;20.13;57.51
51313;BME280;37397;53.226;10.400;2023-05-23T02:42:01;100821.84;;;20.15;57.36
51313;BME280;37397;53.226;10.400;2023-05-23T02:44:28;100826.06;;;20.14;57.47
51313;BME280;37397;53.226;10.400;2023-05-23T02:46:55;100827.41;;;20.13;57.67
51313;BME280;37397;53.226;10.400;2023-05-23T02:49:22;100828.72;;;20.12;57.95
51313;BME280;37397;53.226;10.400;2023-05-23T02:51:49;100834.31;;;20.10;58.04
51313;BME280;37397;53.226;10.400;2023-05-23T02:54:16;100824.03;;;20.09;58.42
51313;BME280;37397;53.226;10.400;2023-05-23T02:56:46;100823.03;;;20.06;58.38
51313;BME280;37397;53.226;10.400;2023-05-23T02:59:13;100818.56;;;20.05;57.98
51313;BME280;37397;53.226;10.400;2023-05-23T03:01:39;100826.72;;;20.07;58.39
51313;BME280;37397;53.226;10.400;2023-05-23T03:04:06;100820.69;;;20.04;58.36
51313;BME280;37397;53.226;10.400;2023-05-23T03:06:33;100824.13;;;20.03;57.88
51313;BME280;37397;53.226;10.400;2023-05-23T03:09:02;100834.91;;;20.02;58.70
51313;BME280;37397;53.226;10.400;2023-05-23T03:11:29;100841.81;;;19.99;57.98
51313;BME280;37397;53.226;10.400;2023-05-23T03:13:58;100839.47;;;19.98;58.38
51313;BME280;37397;53.226;10.400;2023-05-23T03:16:24;100835.00;;;19.97;58.16
51313;BME280;37397;53.226;10.400;2023-05-23T03:18:51;100831.31;;;19.96;58.19
51313;BME280;37397;53.226;10.400;2023-05-23T03:21:18;100838.47;;;19.95;57.83
51313;BME280;37397;53.226;10.400;2023-05-23T03:23:45;100828.19;;;19.94;58.24
51313;BME280;37397;53.226;10.400;2023-05-23T03:26:11;100842.66;;;19.94;58.12
51313;BME280;37397;53.226;10.400;2023-05-23T03:28:38;100825.63;;;19.91;58.16
51313;BME280;37397;53.226;10.400;2023-05-23T03:31:05;100831.94;;;19.89;57.87
51313;BME280;37397;53.226;10.400;2023-05-23T03:33:32;100827.25;;;19.86;57.94
51313;BME280;37397;53.226;10.400;2023-05-23T03:35:59;100828.84;;;19.87;57.97
51313;BME280;37397;53.226;10.400;2023-05-23T03:38:26;100825.69;;;19.85;58.09
51313;BME280;37397;53.226;10.400;2023-05-23T03:40:53;100829.13;;;19.83;57.91
51313;BME280;37397;53.226;10.400;2023-05-23T03:43:20;100833.38;;;19.82;57.91
51313;BME280;37397;53.226;10.400;2023-05-23T03:45:47;100825.22;;;19.81;58.23
51313;BME280;37397;53.226;10.400;2023-05-23T03:48:16;100836.03;;;19.80;58.08
51313;BME280;37397;53.226;10.400;2023-05-23T03:50:42;100833.69;;;19.79;58.02
51313;BME280;37397;53.226;10.400;2023-05-23T03:53:10;100819.75;;;19.77;58.02
51313;BME280;37397;53.226;10.400;2023-05-23T03:55:37;100818.47;;;19.73;58.00
51313;BME280;37397;53.226;10.400;2023-05-23T03:58:05;100817.41;;;19.76;57.92
51313;BME280;37397;53.226;10.400;2023-05-23T04:00:31;100821.34;;;19.73;57.85
51313;BME280;37397;53.226;10.400;2023-05-23T04:03:03;100821.13;;;19.71;58.12
51313;BME280;37397;53.226;10.400;2023-05-23T04:05:30;100818.25;;;19.71;57.95
51313;BME280;37397;53.226;10.400;2023-05-23T04:07:58;100823.22;;;19.70;57.88
51313;BME280;37397;53.226;10.400;2023-05-23T04:10:27;100828.25;;;19.70;57.76
51313;BME280;37397;53.226;10.400;2023-05-23T04:12:54;100832.44;;;19.68;57.85
51313;BME280;37397;53.226;10.400;2023-05-23T04:15:22;100820.97;;;19.63;57.76
51313;BME280;37397;53.226;10.400;2023-05-23T04:17:55;100834.09;;;19.64;58.15
51313;BME280;37397;53.226;10.400;2023-05-23T04:20:24;100828.63;;;19.60;57.96
51313;BME280;37397;53.226;10.400;2023-05-23T04:22:51;100818.13;;;19.57;57.81
51313;BME280;37397;53.226;10.400;2023-05-23T04:25:18;100818.13;;;19.57;57.96
51313;BME280;37397;53.226;10.400;2023-05-23T04:28:00;100827.03;;;19.59;58.50
51313;BME280;37397;53.226;10.400;2023-05-23T04:30:27;100827.34;;;19.56;58.45
51313;BME280;37397;53.226;10.400;2023-05-23T04:32:56;100829.25;;;19.53;58.29
51313;BME280;37397;53.226;10.400;2023-05-23T04:35:27;100823.44;;;19.53;58.27
51313;BME280;37397;53.226;10.400;2023-05-23T04:37:54;100827.66;;;19.52;58.01
51313;BME280;37397;53.226;10.400;2023-05-23T04:40:23;100834.00;;;19.50;58.19
51313;BME280;37397;53.226;10.400;2023-05-23T04:43:00;100830.06;;;19.48;58.31
51313;BME280;37397;53.226;10.400;2023-05-23T04:45:32;100833.78;;;19.48;58.01
51313;BME280;37397;53.226;10.400;2023-05-23T04:48:03;100829.84;;;19.46;58.42
51313;BME280;37397;53.226;10.400;2023-05-23T04:50:42;100834.09;;;19.45;58.54
51313;BME280;37397;53.226;10.400;2023-05-23T04:53:08;100837.53;;;19.43;58.34
51313;BME280;37397;53.226;10.400;2023-05-23T04:55:37;100830.16;;;19.42;58.36
51313;BME280;37397;53.226;10.400;2023-05-23T04:58:06;100832.28;;;19.42;58.24
51313;BME280;37397;53.226;10.400;2023-05-23T05:00:33;100837.81;;;19.40;58.62
51313;BME280;37397;53.226;10.400;2023-05-23T05:03:01;100836.00;;;19.37;58.56
51313;BME280;37397;53.226;10.400;2023-05-23T05:05:29;100837.34;;;19.36;58.54
51313;BME280;37397;53.226;10.400;2023-05-23T05:07:55;100845.00;;;19.33;58.88
51313;BME280;37397;53.226;10.400;2023-05-23T05:10:22;100845.78;;;19.34;58.78
51313;BME280;37397;53.226;10.400;2023-05-23T05:12:49;100851.09;;;19.29;58.48
51313;BME280;37397;53.226;10.400;2023-05-23T05:15:17;100841.63;;;19.29;58.37
51313;BME280;37397;53.226;10.400;2023-05-23T05:17:48;100839.81;;;19.26;58.21
51313;BME280;37397;53.226;10.400;2023-05-23T05:20:17;100845.88;;;19.22;58.26
51313;BME280;37397;53.226;10.400;2023-05-23T05:22:44;100850.59;;;19.25;58.50
51313;BME280;37397;53.226;10.400;2023-05-23T05:25:11;100851.69;;;19.22;58.49
51313;BME280;37397;53.226;10.400;2023-05-23T05:27:38;100847.00;;;19.19;58.94
51313;BME280;37397;53.226;10.400;2023-05-23T05:30:08;100858.56;;;19.19;58.87
51313;BME280;37397;53.226;10.400;2023-05-23T05:32:56;100845.19;;;19.16;59.19
51313;BME280;37397;53.226;10.400;2023-05-23T05:35:23;100852.28;;;19.15;59.05
51313;BME280;37397;53.226;10.400;2023-05-23T05:37:50;100852.84;;;19.13;58.71
51313;BME280;37397;53.226;10.400;2023-05-23T05:40:17;100850.25;;;19.10;59.27
51313;BME280;37397;53.226;10.400;2023-05-23T05:42:43;100847.91;;;19.08;59.19
51313;BME280;37397;53.226;10.400;2023-05-23T05:45:10;100850.78;;;19.08;59.02
51313;BME280;37397;53.226;10.400;2023-05-23T05:47:39;100860.53;;;19.05;59.14
51313;BME280;37397;53.226;10.400;2023-05-23T05:50:07;100855.53;;;19.06;59.01
51313;BME280;37397;53.226;10.400;2023-05-23T05:52:36;100856.34;;;19.06;59.24
51313;BME280;37397;53.226;10.400;2023-05-23T05:55:06;100861.09;;;19.04;58.99
51313;BME280;37397;53.226;10.400;2023-05-23T05:57:34;100860.31;;;19.03;59.00
51313;BME280;37397;53.226;10.400;2023-05-23T06:00:15;100867.41;;;19.02;59.27
51313;BME280;37397;53.226;10.400;2023-05-23T06:02:45;100866.38;;;19.00;59.80
51313;BME280;37397;53.226;10.400;2023-05-23T06:05:40;100870.59;;;18.99;59.06
51313;BME280;37397;53.226;10.400;2023-05-23T06:08:07;100871.16;;;18.97;59.33
51313;BME280;37397;53.226;10.400;2023-05-23T06:10:36;100868.25;;;18.97;59.32
51313;BME280;37397;53.226;10.400;2023-05-23T06:13:03;100863.78;;;18.96;58.98
51313;BME280;37397;53.226;10.400;2023-05-23T06:15:31;100868.78;;;18.95;59.25
51313;BME280;37397;53.226;10.400;2023-05-23T06:17:58;100873.00;;;18.94;58.62
51313;BME280;37397;53.226;10.400;2023-05-23T06:20:24;100861.44;;;18.94;58.79
51313;BME280;37397;53.226;10.400;2023-05-23T06:22:52;100860.66;;;18.94;59.07
51313;BME280;37397;53.226;10.400;2023-05-23T06:25:19;100868.28;;;18.91;59.02
51313;BME280;37397;53.226;10.400;2023-05-23T06:27:46;100861.72;;;18.91;59.34
51313;BME280;37397;53.226;10.400;2023-05-23T06:30:13;100860.97;;;18.90;59.48
51313;BME280;37397;53.226;10.400;2023-05-23T06:32:40;100865.94;;;18.90;59.05
51313;BME280;37397;53.226;10.400;2023-05-23T06:35:07;100864.38;;;18.89;59.07
51313;BME280;37397;53.226;10.400;2023-05-23T06:37:34;100863.56;;;18.88;58.78
51313;BME280;37397;53.226;10.400;2023-05-23T06:40:01;100873.59;;;18.87;58.95
51313;BME280;37397;53.226;10.400;2023-05-23T06:42:27;100860.47;;;18.86;58.97
51313;BME280;37397;53.226;10.400;2023-05-23T06:45:03;100870.47;;;18.85;59.31
51313;BME280;37397;53.226;10.400;2023-05-23T06:47:31;100867.56;;;18.85;59.21
51313;BME280;37397;53.226;10.400;2023-05-23T06:49:57;100861.78;;;18.85;59.22
51313;BME280;37397;53.226;10.400;2023-05-23T06:52:24;100867.28;;;18.83;59.37
51313;BME280;37397;53.226;10.400;2023-05-23T06:54:51;100868.13;;;18.84;59.44
51313;BME280;37397;53.226;10.400;2023-05-23T06:57:18;100859.44;;;18.84;59.24
51313;BME280;37397;53.226;10.400;2023-05-23T06:59:45;100860.72;;;18.83;59.28
51313;BME280;37397;53.226;10.400;2023-05-23T07:02:12;100856.56;;;18.84;59.31
51313;BME280;37397;53.226;10.400;2023-05-23T07:04:39;100855.72;;;18.83;58.93
51313;BME280;37397;53.226;10.400;2023-05-23T07:07:13;100858.59;;;18.83;59.63
51313;BME280;37397;53.226;10.400;2023-05-23T07:09:42;100851.00;;;18.80;59.33
51313;BME280;37397;53.226;10.400;2023-05-23T07:12:13;100859.94;;;18.82;59.24
51313;BME280;37397;53.226;10.400;2023-05-23T07:14:42;100869.41;;;18.83;59.35
51313;BME280;37397;53.226;10.400;2023-05-23T07:17:09;100872.81;;;18.81;59.54
51313;BME280;37397;53.226;10.400;2023-05-23T07:19:37;100869.94;;;18.81;59.26
51313;BME280;37397;53.226;10.400;2023-05-23T07:22:04;100875.72;;;18.81;59.38
51313;BME280;37397;53.226;10.400;2023-05-23T07:24:33;100874.94;;;18.81;59.84
51313;BME280;37397;53.226;10.400;2023-05-23T07:27:00;100874.13;;;18.80;60.42
51313;BME280;37397;53.226;10.400;2023-05-23T07:29:28;100871.25;;;18.80;59.90
51313;BME280;37397;53.226;10.400;2023-05-23T07:31:54;100871.78;;;18.78;59.65
51313;BME280;37397;53.226;10.400;2023-05-23T07:34:22;100867.88;;;18.76;59.88
51313;BME280;37397;53.226;10.400;2023-05-23T07:36:53;100881.25;;;18.79;60.01
51313;BME280;37397;53.226;10.400;2023-05-23T07:39:21;100876.78;;;18.78;60.38
51313;BME280;37397;53.226;10.400;2023-05-23T07:41:50;100870.25;;;18.77;60.66
51313;BME280;37397;53.226;10.400;2023-05-23T07:44:18;100882.06;;;18.74;60.69
51313;BME280;37397;53.226;10.400;2023-05-23T07:46:48;100884.44;;;18.75;61.12
51313;BME280;37397;53.226;10.400;2023-05-23T07:49:16;100882.06;;;18.74;60.98
51313;BME280;37397;53.226;10.400;2023-05-23T07:51:42;100883.66;;;18.75;60.92
51313;BME280;37397;53.226;10.400;2023-05-23T07:54:09;100882.88;;;18.74;60.76
51313;BME280;37397;53.226;10.400;2023-05-23T07:56:38;100882.88;;;18.74;60.45
51313;BME280;37397;53.226;10.400;2023-05-23T07:59:06;100882.06;;;18.74;61.10
51313;BME280;37397;53.226;10.400;2023-05-23T08:01:35;100889.97;;;18.73;61.14
51313;BME280;37397;53.226;10.400;2023-05-23T08:04:05;100887.63;;;18.72;60.83
51313;BME280;37397;53.226;10.400;2023-05-23T08:06:49;100889.75;;;18.66;61.19
51313;BME280;37397;53.226;10.400;2023-05-23T08:09:43;100897.66;;;18.65;61.69
51313;BME280;37397;53.226;10.400;2023-05-23T08:12:13;100892.66;;;18.66;62.27
51313;BME280;37397;53.226;10.400;2023-05-23T08:14:40;100893.47;;;18.66;62.53
51313;BME280;37397;53.226;10.400;2023-05-23T08:17:22;100891.88;;;18.65;62.53
51313;BME280;37397;53.226;10.400;2023-05-23T08:19:50;100897.66;;;18.65;62.36
51313;BME280;37397;53.226;10.400;2023-05-23T08:22:17;100910.81;;;18.66;62.29
51313;BME280;37397;53.226;10.400;2023-05-23T08:24:43;100903.97;;;18.64;62.65
51313;BME280;37397;53.226;10.400;2023-05-23T08:27:10;100907.16;;;18.60;62.99
51313;BME280;37397;53.226;10.400;2023-05-23T08:29:37;100914.25;;;18.59;63.19
51313;BME280;37397;53.226;10.400;2023-05-23T08:32:04;100925.28;;;18.61;62.86
51313;BME280;37397;53.226;10.400;2023-05-23T08:34:32;100930.03;;;18.58;63.10
51313;BME280;37397;53.226;10.400;2023-05-23T08:36:59;100939.50;;;18.58;63.05
51313;BME280;37397;53.226;10.400;2023-05-23T08:39:26;100936.09;;;18.54;62.99
51313;BME280;37397;53.226;10.400;2023-05-23T08:42:07;100932.47;;;18.48;62.70
51313;BME280;37397;53.226;10.400;2023-05-23T08:44:34;100934.03;;;18.49;62.93
51313;BME280;37397;53.226;10.400;2023-05-23T08:47:02;100946.94;;;18.48;62.60
51313;BME280;37397;53.226;10.400;2023-05-23T08:49:51;100950.88;;;18.45;62.68
51313;BME280;37397;53.226;10.400;2023-05-23T08:52:21;100947.72;;;18.43;62.35
51313;BME280;37397;53.226;10.400;2023-05-23T08:54:52;100954.84;;;18.42;62.56
51313;BME280;37397;53.226;10.400;2023-05-23T08:57:19;100963.22;;;18.40;62.45
51313;BME280;37397;53.226;10.400;2023-05-23T08:59:51;100959.09;;;18.35;62.59
51313;BME280;37397;53.226;10.400;2023-05-23T09:02:21;100964.59;;;18.33;62.96
51313;BME280;37397;53.226;10.400;2023-05-23T09:04:51;100970.66;;;18.30;62.98
51313;BME280;37397;53.226;10.400;2023-05-23T09:07:21;100973.28;;;18.28;62.81
51313;BME280;37397;53.226;10.400;2023-05-23T09:09:50;100971.22;;;18.22;63.11
51313;BME280;37397;53.226;10.400;2023-05-23T09:12:17;100978.56;;;18.23;62.85
51313;BME280;37397;53.226;10.400;2023-05-23T09:14:46;100989.34;;;18.23;62.79
51313;BME280;37397;53.226;10.400;2023-05-23T09:17:20;100994.34;;;18.22;62.90
51313;BME280;37397;53.226;10.400;2023-05-23T09:19:49;100994.06;;;18.20;62.55
51313;BME280;37397;53.226;10.400;2023-05-23T09:22:24;101001.19;;;18.19;62.72
51313;BME280;37397;53.226;10.400;2023-05-23T09:24:59;101011.16;;;18.18;62.24
51313;BME280;37397;53.226;10.400;2023-05-23T09:27:27;101016.41;;;18.14;62.36
51313;BME280;37397;53.226;10.400;2023-05-23T09:29:53;101017.75;;;18.13;62.35
51313;BME280;37397;53.226;10.400;2023-05-23T09:32:23;101014.03;;;18.13;61.92
51313;BME280;37397;53.226;10.400;2023-05-23T09:34:55;101036.38;;;18.12;61.77
51313;BME280;37397;53.226;10.400;2023-05-23T09:37:31;101029.56;;;18.10;61.86
51313;BME280;37397;53.226;10.400;2023-05-23T09:40:00;101025.09;;;18.09;61.94
51313;BME280;37397;53.226;10.400;2023-05-23T09:42:32;101032.47;;;18.04;61.75
51313;BME280;37397;53.226;10.400;2023-05-23T09:45:02;101027.22;;;18.02;61.74
51313;BME280;37397;53.226;10.400;2023-05-23T09:47:30;101037.19;;;18.01;61.73
51313;BME280;37397;53.226;10.400;2023-05-23T09:49:57;101043.22;;;17.98;61.91
51313;BME280;37397;53.226;10.400;2023-05-23T09:52:24;101034.81;;;18.00;61.84
51313;BME280;37397;53.226;10.400;2023-05-23T09:54:53;101038.78;;;17.97;61.45
51313;BME280;37397;53.226;10.400;2023-05-23T09:57:21;101045.88;;;17.96;61.92
51313;BME280;37397;53.226;10.400;2023-05-23T09:59:51;101044.81;;;17.93;62.14
51313;BME280;37397;53.226;10.400;2023-05-23T10:05:03;101062.16;;;17.88;62.81
51313;BME280;37397;53.226;10.400;2023-05-23T10:07:33;101057.41;;;17.84;62.84
51313;BME280;37397;53.226;10.400;2023-05-23T10:10:03;101058.47;;;17.87;62.53
51313;BME280;37397;53.226;10.400;2023-05-23T10:12:41;101072.09;;;17.86;62.92
51313;BME280;37397;53.226;10.400;2023-05-23T10:15:13;101087.59;;;17.83;62.54
51313;BME280;37397;53.226;10.400;2023-05-23T10:20:30;101097.31;;;17.80;62.58
51313;BME280;37397;53.226;10.400;2023-05-23T10:22:59;101103.06;;;17.80;62.48
51313;BME280;37397;53.226;10.400;2023-05-23T10:25:27;101101.53;;;17.79;62.45
51313;BME280;37397;53.226;10.400;2023-05-23T10:27:55;101105.72;;;17.78;62.13
51313;BME280;37397;53.226;10.400;2023-05-23T10:30:28;101118.03;;;17.67;62.31
51313;BME280;37397;53.226;10.400;2023-05-23T10:32:55;101117.25;;;17.67;62.53
51313;BME280;37397;53.226;10.400;2023-05-23T10:41:08;101120.41;;;17.58;62.34
51313;BME280;37397;53.226;10.400;2023-05-23T10:46:15;101138.25;;;17.50;62.87
51313;BME280;37397;53.226;10.400;2023-05-23T10:48:43;101137.72;;;17.46;62.91
51313;BME280;37397;53.226;10.400;2023-05-23T10:51:11;101149.00;;;17.44;62.77
51313;BME280;37397;53.226;10.400;2023-05-23T10:53:45;101149.50;;;17.43;62.57
51313;BME280;37397;53.226;10.400;2023-05-23T10:56:20;101157.91;;;17.41;62.61
51313;BME280;37397;53.226;10.400;2023-05-23T10:58:52;101148.19;;;17.38;62.70
51313;BME280;37397;53.226;10.400;2023-05-23T11:01:20;101148.44;;;17.29;62.69
51313;BME280;37397;53.226;10.400;2023-05-23T11:03:50;101159.22;;;17.34;62.75
51313;BME280;37397;53.226;10.400;2023-05-23T11:06:40;101156.84;;;17.33;62.53
51313;BME280;37397;53.226;10.400;2023-05-23T11:09:10;101168.38;;;17.33;62.63
51313;BME280;37397;53.226;10.400;2023-05-23T11:16:56;101179.63;;;17.25;62.66
51313;BME280;37397;53.226;10.400;2023-05-23T11:19:24;101188.03;;;17.23;62.61
51313;BME280;37397;53.226;10.400;2023-05-23T11:22:01;101188.56;;;17.21;62.51
51313;BME280;37397;53.226;10.400;2023-05-23T11:30:05;101199.28;;;17.15;62.21
51313;BME280;37397;53.226;10.400;2023-05-23T11:32:32;101195.31;;;17.12;62.35
51313;BME280;37397;53.226;10.400;2023-05-23T11:35:03;101205.31;;;17.11;62.05
51313;BME280;37397;53.226;10.400;2023-05-23T11:37:30;101207.13;;;17.09;62.19
51313;BME280;37397;53.226;10.400;2023-05-23T11:39:57;101206.84;;;17.07;62.05
51313;BME280;37397;53.226;10.400;2023-05-23T11:42:24;101206.81;;;17.01;62.04
51313;BME280;37397;53.226;10.400;2023-05-23T11:44:51;101217.31;;;16.99;61.89
51313;BME280;37397;53.226;10.400;2023-05-23T11:47:18;101214.94;;;16.97;61.70
51313;BME280;37397;53.226;10.400;2023-05-23T11:49:45;101222.25;;;16.92;61.62
51313;BME280;37397;53.226;10.400;2023-05-23T11:52:12;101225.66;;;16.91;61.90
51313;BME280;37397;53.226;10.400;2023-05-23T11:54:42;101222.50;;;16.89;61.57
51313;BME280;37397;53.226;10.400;2023-05-23T11:57:10;101232.19;;;16.86;61.68
51313;BME280;37397;53.226;10.400;2023-05-23T11:59:36;101239.22;;;16.85;61.64
51313;BME280;37397;53.226;10.400;2023-05-23T12:02:05;101230.81;;;16.81;61.67
51313;BME280;37397;53.226;10.400;2023-05-23T12:04:34;101222.69;;;16.80;61.54
51313;BME280;37397;53.226;10.400;2023-05-23T12:07:05;101235.25;;;16.76;61.67
51313;BME280;37397;53.226;10.400;2023-05-23T12:09:45;101232.09;;;16.74;61.69
51313;BME280;37397;53.226;10.400;2023-05-23T12:12:13;101236.78;;;16.72;61.77
51313;BME280;37397;53.226;10.400;2023-05-23T12:14:40;101231.81;;;16.72;61.79
51313;BME280;37397;53.226;10.400;2023-05-23T12:17:11;101233.38;;;16.73;61.78
51313;BME280;37397;53.226;10.400;2023-05-23T12:19:39;101240.19;;;16.70;61.85
51313;BME280;37397;53.226;10.400;2023-05-23T12:22:10;101240.19;;;16.70;62.05
51313;BME280;37397;53.226;10.400;2023-05-23T12:24:44;101242.78;;;16.68;61.74
51313;BME280;37397;53.226;10.400;2023-05-23T12:27:11;101234.41;;;16.70;61.93
51313;BME280;37397;53.226;10.400;2023-05-23T12:29:37;101246.72;;;16.71;61.68
51313;BME280;37397;53.226;10.400;2023-05-23T12:32:05;101259.06;;;16.71;61.79
51313;BME280;37397;53.226;10.400;2023-05-23T12:34:32;101248.31;;;16.72;61.46
51313;BME280;37397;53.226;10.400;2023-05-23T12:37:00;101227.63;;;16.73;61.24
51313;BME280;37397;53.226;10.400;2023-05-23T12:39:32;101242.03;;;16.73;60.94
51313;BME280;37397;53.226;10.400;2023-05-23T12:42:08;101244.91;;;16.73;60.56
51313;BME280;37397;53.226;10.400;2023-05-23T12:44:35;101250.16;;;16.75;60.49
51313;BME280;37397;53.226;10.400;2023-05-23T12:47:03;101243.88;;;16.76;60.46
51313;BME280;37397;53.226;10.400;2023-05-23T12:49:29;101252.81;;;16.78;60.52
51313;BME280;37397;53.226;10.400;2023-05-23T12:51:56;101249.91;;;16.78;60.44
51313;BME280;37397;53.226;10.400;2023-05-23T12:54:23;101254.09;;;16.77;59.99
51313;BME280;37397;53.226;10.400;2023-05-23T12:56:49;101255.41;;;16.76;59.54
51313;BME280;37397;53.226;10.400;2023-05-23T12:59:16;101265.09;;;16.79;59.66
51313;BME280;37397;53.226;10.400;2023-05-23T13:01:43;101268.50;;;16.77;59.33
51313;BME280;37397;53.226;10.400;2023-05-23T13:04:10;101265.63;;;16.77;58.87
51313;BME280;37397;53.226;10.400;2023-05-23T13:06:37;101263.78;;;16.74;58.72
51313;BME280;37397;53.226;10.400;2023-05-23T13:09:03;101277.44;;;16.80;58.77
51313;BME280;37397;53.226;10.400;2023-05-23T13:11:30;101274.28;;;16.77;58.19
51313;BME280;37397;53.226;10.400;2023-05-23T13:13:57;101270.88;;;16.79;57.97
51313;BME280;37397;53.226;10.400;2023-05-23T13:16:23;101269.56;;;16.74;58.13
51313;BME280;37397;53.226;10.400;2023-05-23T13:18:50;101270.59;;;16.77;57.70